Time;durP1;ratioP1;P1;durP2;ratioP2;P2;SDS_P1;SDS_P2;PMS_P1;PMS_P2;Temp;Humidity;BMP_temperature;BMP_pressure;BME280_temperature;BME280_humidity;BME280_pressure;Samples;Min_cycle;Max_cycle;Signal;HPM_P1;HPM_P2
2023/10/13 00:01:59;;;;;;;;;;;15.50;56.40;;;;;;4950403;28;88919;-45
2023/10/13 00:04:25;;;;;;;;;;;15.50;56.50;;;;;;4953604;28;87140;-44
2023/10/13 00:06:52;;;;;;;;;;;15.50;56.40;;;;;;4953594;28;88797;-45
2023/10/13 00:09:19;;;;;;;;;;;15.50;56.40;;;;;;4952625;28;89418;-46
2023/10/13 00:11:44;;;;;;;;;;;15.50;56.40;;;;;;4954445;28;87063;-45
2023/10/13 00:14:16;;;;;;;;;;;15.50;56.40;;;;;;4960663;28;89604;-49
2023/10/13 00:16:42;;;;;;;;;;;15.50;56.40;;;;;;4951645;28;87074;-42
2023/10/13 00:19:10;;;;;;;;;;;15.50;56.40;;;;;;4953571;28;87945;-42
2023/10/13 00:21:35;;;;;;;;;;;15.50;56.40;;;;;;4952396;28;89128;-46
2023/10/13 00:24:05;;;;;;;;;;;15.50;56.50;;;;;;4951391;28;87212;-46
2023/10/13 00:26:35;;;;;;;;;;;15.50;56.40;;;;;;4953318;28;89151;-45
2023/10/13 00:29:09;;;;;;;;;;;15.50;56.40;;;;;;4951236;28;89327;-42
2023/10/13 00:31:40;;;;;;;;;;;15.40;56.30;;;;;;4951684;28;87429;-45
2023/10/13 00:34:11;;;;;;;;;;;15.40;56.40;;;;;;4953203;28;88757;-46
2023/10/13 00:36:48;;;;;;;;;;;15.40;57.00;;;;;;4952738;28;87085;-45
2023/10/13 00:39:16;;;;;;;;;;;15.40;56.30;;;;;;4949916;28;87925;-48
2023/10/13 00:41:52;;;;;;;;;;;15.40;56.40;;;;;;4950619;28;88009;-48
2023/10/13 00:44:25;;;;;;;;;;;15.40;56.40;;;;;;4953211;28;86246;-44
2023/10/13 00:46:55;;;;;;;;;;;15.40;56.40;;;;;;4953868;28;87320;-48
2023/10/13 00:49:21;;;;;;;;;;;15.40;56.30;;;;;;4951225;28;88037;-46
2023/10/13 00:51:47;;;;;;;;;;;15.40;56.30;;;;;;4950926;28;88125;-45
2023/10/13 00:54:16;;;;;;;;;;;15.40;56.40;;;;;;4953631;28;88607;-45
2023/10/13 00:57:03;;;;;;;;;;;15.30;56.30;;;;;;4953062;28;88476;-48
2023/10/13 00:59:33;;;;;;;;;;;15.30;56.30;;;;;;4953203;28;88622;-43
2023/10/13 01:02:25;;;;;;;;;;;15.30;56.30;;;;;;4950047;28;89528;-45
2023/10/13 01:04:46;;;;;;;;;;;15.30;56.30;;;;;;4950393;28;87090;-42
2023/10/13 01:07:12;;;;;;;;;;;15.30;56.30;;;;;;4957239;28;88715;-47
2023/10/13 01:09:42;;;;;;;;;;;15.30;56.30;;;;;;4956093;28;86845;-43
2023/10/13 01:12:08;;;;;;;;;;;15.30;56.30;;;;;;4955336;28;87130;-45
2023/10/13 01:14:35;;;;;;;;;;;15.30;56.30;;;;;;4953972;28;89233;-44
2023/10/13 01:17:01;;;;;;;;;;;15.30;56.30;;;;;;4955434;28;90507;-48
2023/10/13 01:19:28;;;;;;;;;;;15.30;56.30;;;;;;4956435;28;86981;-46
2023/10/13 01:22:01;;;;;;;;;;;15.30;56.30;;;;;;4955719;28;89713;-44
2023/10/13 01:24:31;;;;;;;;;;;15.20;56.20;;;;;;4955032;28;87021;-46
2023/10/13 01:26:56;;;;;;;;;;;15.20;56.20;;;;;;4953402;28;88688;-44
2023/10/13 01:29:28;;;;;;;;;;;15.20;56.30;;;;;;4956642;28;88264;-47
2023/10/13 01:31:54;;;;;;;;;;;15.20;56.30;;;;;;4954506;28;87061;-42
2023/10/13 01:34:21;;;;;;;;;;;15.20;56.30;;;;;;4955411;28;87334;-43
2023/10/13 01:36:50;;;;;;;;;;;15.20;56.20;;;;;;4955576;28;88113;-47
2023/10/13 01:39:17;;;;;;;;;;;15.20;56.30;;;;;;4955333;28;87214;-45
2023/10/13 01:41:42;;;;;;;;;;;15.10;56.30;;;;;;4955162;28;88837;-46
2023/10/13 01:44:11;;;;;;;;;;;15.10;56.30;;;;;;4953735;28;87427;-44
2023/10/13 01:46:37;;;;;;;;;;;15.10;56.30;;;;;;4954372;28;87903;-49
2023/10/13 01:49:03;;;;;;;;;;;15.10;56.40;;;;;;4955301;28;87848;-43
2023/10/13 01:51:28;;;;;;;;;;;15.10;56.30;;;;;;4953472;28;87032;-46
2023/10/13 01:53:57;;;;;;;;;;;15.10;56.30;;;;;;4955992;28;87510;-44
2023/10/13 01:56:23;;;;;;;;;;;15.10;56.30;;;;;;4953132;28;89068;-46
2023/10/13 01:58:49;;;;;;;;;;;15.00;56.30;;;;;;4955420;28;86486;-42
2023/10/13 02:01:26;;;;;;;;;;;15.00;56.30;;;;;;4957329;28;87051;-47
2023/10/13 02:04:04;;;;;;;;;;;15.00;56.40;;;;;;4952196;28;87092;-42
2023/10/13 02:06:33;;;;;;;;;;;15.00;56.30;;;;;;4953266;28;88922;-46
2023/10/13 02:09:10;;;;;;;;;;;15.00;56.40;;;;;;4955068;28;88012;-44
2023/10/13 02:11:49;;;;;;;;;;;15.00;56.30;;;;;;4954291;28;86960;-45
2023/10/13 02:14:18;;;;;;;;;;;15.00;56.30;;;;;;4953200;28;87428;-47
2023/10/13 02:16:46;;;;;;;;;;;14.90;56.40;;;;;;4953374;28;89611;-44
2023/10/13 02:19:15;;;;;;;;;;;14.90;56.40;;;;;;4954288;28;87520;-44
2023/10/13 02:21:43;;;;;;;;;;;14.90;56.40;;;;;;4952860;28;88788;-46
2023/10/13 02:24:18;;;;;;;;;;;14.90;56.30;;;;;;4959321;28;88556;-43
2023/10/13 02:26:47;;;;;;;;;;;14.90;56.30;;;;;;4953937;28;87577;-48
2023/10/13 02:29:13;;;;;;;;;;;14.90;56.30;;;;;;4953200;28;88164;-45
2023/10/13 02:31:42;;;;;;;;;;;14.90;56.30;;;;;;4954833;28;88195;-46
2023/10/13 02:34:08;;;;;;;;;;;14.90;56.30;;;;;;4952795;28;88350;-44
2023/10/13 02:36:38;;;;;;;;;;;14.90;56.30;;;;;;4954301;28;89496;-46
2023/10/13 02:39:07;;;;;;;;;;;14.90;56.20;;;;;;4953942;28;87123;-42
2023/10/13 02:41:36;;;;;;;;;;;14.80;56.20;;;;;;4952663;28;87451;-45
2023/10/13 02:44:05;;;;;;;;;;;14.80;56.20;;;;;;4951480;28;89542;-49
2023/10/13 02:46:32;;;;;;;;;;;14.80;56.20;;;;;;4956993;28;87174;-45
2023/10/13 02:48:59;;;;;;;;;;;14.80;56.20;;;;;;4941914;28;91775;-48
2023/10/13 02:51:35;;;;;;;;;;;14.80;56.20;;;;;;4953220;28;87065;-47
2023/10/13 02:54:02;;;;;;;;;;;14.80;56.20;;;;;;4952756;28;87613;-43
2023/10/13 02:56:29;;;;;;;;;;;14.80;56.20;;;;;;4952520;28;90506;-44
2023/10/13 02:58:56;;;;;;;;;;;14.80;56.30;;;;;;4954190;28;86973;-45
2023/10/13 03:01:27;;;;;;;;;;;14.80;56.20;;;;;;4952308;28;88912;-42
2023/10/13 03:03:58;;;;;;;;;;;14.80;56.20;;;;;;4950958;28;90138;-45
2023/10/13 03:06:32;;;;;;;;;;;14.80;56.20;;;;;;4953919;28;87088;-42
2023/10/13 03:09:14;;;;;;;;;;;14.70;56.20;;;;;;4954186;28;87791;-43
2023/10/13 03:11:48;;;;;;;;;;;14.80;56.20;;;;;;4953210;28;87003;-44
2023/10/13 03:14:32;;;;;;;;;;;14.70;56.20;;;;;;4952471;28;87367;-48
2023/10/13 03:17:06;;;;;;;;;;;14.70;56.10;;;;;;4952414;28;86937;-47
2023/10/13 03:19:36;;;;;;;;;;;14.70;56.10;;;;;;4952569;28;86961;-45
2023/10/13 03:22:12;;;;;;;;;;;14.70;56.20;;;;;;4952733;28;88991;-43
2023/10/13 03:24:44;;;;;;;;;;;14.70;56.20;;;;;;4954579;28;89113;-45
2023/10/13 03:27:11;;;;;;;;;;;14.70;56.20;;;;;;4952396;28;87013;-43
2023/10/13 03:29:42;;;;;;;;;;;14.60;56.10;;;;;;4955286;28;88590;-50
2023/10/13 03:32:11;;;;;;;;;;;14.60;56.10;;;;;;4954456;28;87006;-50
2023/10/13 03:34:49;;;;;;;;;;;14.60;56.10;;;;;;4951881;28;87489;-42
2023/10/13 03:37:19;;;;;;;;;;;14.60;56.20;;;;;;4952046;28;88029;-48
2023/10/13 03:39:45;;;;;;;;;;;14.60;56.10;;;;;;4955272;28;86431;-47
2023/10/13 03:42:18;;;;;;;;;;;14.60;56.10;;;;;;4953803;28;87805;-45
2023/10/13 03:44:47;;;;;;;;;;;14.60;56.10;;;;;;4952982;28;89068;-46
2023/10/13 03:47:26;;;;;;;;;;;14.60;56.10;;;;;;4950689;28;88076;-45
2023/10/13 03:50:15;;;;;;;;;;;14.60;56.10;;;;;;4959702;28;91679;-41
2023/10/13 03:52:40;;;;;;;;;;;14.60;56.10;;;;;;4954636;28;88594;-50
2023/10/13 03:55:07;;;;;;;;;;;14.60;56.00;;;;;;4954247;28;88932;-45
2023/10/13 03:57:37;;;;;;;;;;;14.60;56.00;;;;;;4951431;28;91675;-49
2023/10/13 04:00:09;;;;;;;;;;;14.50;56.00;;;;;;4954509;28;87125;-45
2023/10/13 04:02:36;;;;;;;;;;;14.60;56.10;;;;;;4952048;28;87399;-48
2023/10/13 04:05:08;;;;;;;;;;;14.50;56.10;;;;;;4953039;28;87293;-43
2023/10/13 04:07:39;;;;;;;;;;;14.50;56.20;;;;;;4954056;28;87084;-45
2023/10/13 04:11:49;;;;;;;;;;;14.50;56.10;;;;;;4951849;28;87235;-44
2023/10/13 04:14:20;;;;;;;;;;;14.50;56.10;;;;;;4951283;28;89559;-46
2023/10/13 04:16:14;;;;;;;;;;;14.40;56.10;;;;;;4955208;28;87124;-48
2023/10/13 04:21:39;;;;;;;;;;;14.40;56.10;;;;;;4947955;28;87064;-44
2023/10/13 04:24:11;;;;;;;;;;;14.40;56.10;;;;;;4951191;28;89140;-46
2023/10/13 04:26:37;;;;;;;;;;;14.40;56.00;;;;;;4952122;28;88728;-44
2023/10/13 04:29:10;;;;;;;;;;;14.40;56.00;;;;;;4953079;28;87121;-43
2023/10/13 04:31:55;;;;;;;;;;;14.40;56.00;;;;;;4954013;28;87485;-45
2023/10/13 04:34:27;;;;;;;;;;;14.40;56.10;;;;;;4952534;28;87294;-44
2023/10/13 04:37:10;;;;;;;;;;;14.40;56.00;;;;;;4951033;28;88888;-49
2023/10/13 04:39:38;;;;;;;;;;;14.40;56.00;;;;;;4954894;28;90946;-44
2023/10/13 04:44:52;;;;;;;;;;;14.40;56.00;;;;;;4929818;28;87307;-45
2023/10/13 04:47:20;;;;;;;;;;;14.30;56.00;;;;;;4952937;28;89449;-43
2023/10/13 06:29:53;;;;;;;;;;;14.10;55.90;;;;;;4950161;28;87227;-45
2023/10/13 06:32:19;;;;;;;;;;;14.10;56.00;;;;;;4954920;28;87868;-47
2023/10/13 06:34:45;;;;;;;;;;;14.10;56.00;;;;;;4953269;28;87622;-47
2023/10/13 06:37:22;;;;;;;;;;;14.10;56.00;;;;;;4952706;28;88102;-44
2023/10/13 06:40:16;;;;;;;;;;;14.10;56.00;;;;;;4950764;28;87934;-45
2023/10/13 06:42:44;;;;;;;;;;;14.10;56.00;;;;;;4952681;28;88065;-43
2023/10/13 06:45:11;;;;;;;;;;;14.00;56.10;;;;;;4954247;28;86393;-45
2023/10/13 06:47:43;;;;;;;;;;;14.10;56.10;;;;;;4951618;28;87110;-44
2023/10/13 06:50:15;;;;;;;;;;;14.10;56.00;;;;;;4955462;28;89365;-45
2023/10/13 06:52:44;;;;;;;;;;;14.10;56.10;;;;;;4952360;28;87983;-44
2023/10/13 06:55:27;;;;;;;;;;;14.10;56.10;;;;;;4951437;28;88125;-44
2023/10/13 06:57:59;;;;;;;;;;;14.10;56.10;;;;;;4952003;28;88180;-46
2023/10/13 07:00:34;;;;;;;;;;;14.00;56.10;;;;;;4955459;28;87146;-45
2023/10/13 07:03:07;;;;;;;;;;;14.00;56.20;;;;;;4950153;28;87180;-43
2023/10/13 07:05:41;;;;;;;;;;;14.00;56.30;;;;;;4952221;28;87252;-45
2023/10/13 07:08:07;;;;;;;;;;;14.00;56.30;;;;;;4956767;28;88789;-46
2023/10/13 07:10:44;;;;;;;;;;;14.00;56.50;;;;;;4951922;28;87839;-42
2023/10/13 07:13:10;;;;;;;;;;;14.00;56.50;;;;;;4953091;28;87169;-45
2023/10/13 07:15:44;;;;;;;;;;;14.00;56.50;;;;;;4953606;28;87723;-46
2023/10/13 07:18:13;;;;;;;;;;;14.10;57.10;;;;;;4954139;28;88198;-47
2023/10/13 07:20:43;;;;;;;;;;;14.00;56.50;;;;;;4953461;28;87190;-43
2023/10/13 07:23:17;;;;;;;;;;;14.10;56.50;;;;;;4954319;28;88929;-45
2023/10/13 07:25:50;;;;;;;;;;;14.10;57.10;;;;;;4953291;28;88001;-48
2023/10/13 07:28:16;;;;;;;;;;;14.10;56.60;;;;;;4952965;28;87284;-45
2023/10/13 07:33:36;;;;;;;;;;;14.10;56.70;;;;;;4936387;28;89148;-48
2023/10/13 07:36:11;;;;;;;;;;;14.10;56.80;;;;;;4956353;28;87584;-45
2023/10/13 07:38:37;;;;;;;;;;;14.00;56.70;;;;;;4952953;28;88038;-45
2023/10/13 07:41:08;;;;;;;;;;;14.10;56.70;;;;;;4952038;28;87126;-44
2023/10/13 07:43:34;;;;;;;;;;;14.00;56.70;;;;;;4952226;28;88264;-43
2023/10/13 07:46:06;;;;;;;;;;;14.00;56.80;;;;;;4955831;28;88028;-47
2023/10/13 07:48:33;;;;;;;;;;;14.10;56.90;;;;;;4952698;28;87971;-45
2023/10/13 07:51:22;;;;;;;;;;;14.00;56.80;;;;;;4948183;28;89411;-49
2023/10/13 07:53:49;;;;;;;;;;;14.00;56.80;;;;;;4953652;28;87129;-47
2023/10/13 07:56:18;;;;;;;;;;;14.00;56.90;;;;;;4954049;28;89489;-41
2023/10/13 07:58:53;;;;;;;;;;;14.00;57.00;;;;;;4950502;28;88199;-43
2023/10/13 08:01:19;;;;;;;;;;;14.00;56.90;;;;;;4951600;28;86472;-46
2023/10/13 08:03:45;;;;;;;;;;;14.00;57.00;;;;;;4953808;28;87135;-45
2023/10/13 08:08:40;;;;;;;;;;;14.00;57.10;;;;;;4948643;28;88272;-47
2023/10/13 08:11:11;;;;;;;;;;;13.90;57.20;;;;;;4950577;28;87899;-45
2023/10/13 08:13:37;;;;;;;;;;;13.90;57.30;;;;;;4954426;28;87200;-43
2023/10/13 08:16:09;;;;;;;;;;;13.90;57.40;;;;;;4954135;28;87213;-45
2023/10/13 08:18:36;;;;;;;;;;;13.90;58.10;;;;;;4954714;28;89729;-47
2023/10/13 08:21:05;;;;;;;;;;;14.00;57.50;;;;;;4956604;28;88781;-44
2023/10/13 08:26:30;;;;;;;;;;;13.90;57.60;;;;;;4958201;28;86479;-44
2023/10/13 08:29:44;;;;;;;;;;;13.90;57.70;;;;;;4956829;28;87127;-44
2023/10/13 08:32:05;;;;;;;;;;;13.90;57.60;;;;;;4959096;28;87697;-44
2023/10/13 08:34:38;;;;;;;;;;;13.90;57.70;;;;;;4956349;28;88098;-45
2023/10/13 08:37:22;;;;;;;;;;;14.00;57.60;;;;;;4951176;28;88301;-48
2023/10/13 08:42:34;;;;;;;;;;;14.00;57.50;;;;;;4955635;28;87687;-43
2023/10/13 08:45:04;;;;;;;;;;;14.00;57.50;;;;;;4954738;28;87505;-44
2023/10/13 08:47:36;;;;;;;;;;;14.00;57.60;;;;;;4959564;28;91191;-47
2023/10/13 08:50:31;;;;;;;;;;;14.10;57.70;;;;;;4957948;28;87196;-44
2023/10/13 08:52:49;;;;;;;;;;;14.10;57.80;;;;;;4958391;28;87800;-45
2023/10/13 08:58:13;;;;;;;;;;;14.10;57.80;;;;;;4955456;28;87055;-47
2023/10/13 09:01:11;;;;;;;;;;;14.10;57.70;;;;;;4952917;28;90272;-43
2023/10/13 09:03:40;;;;;;;;;;;14.10;57.80;;;;;;4953503;28;87669;-48
2023/10/13 09:06:14;;;;;;;;;;;14.10;57.80;;;;;;4954866;28;87175;-48
2023/10/13 09:11:51;;;;;;;;;;;14.10;57.90;;;;;;4915324;28;87361;-44
2023/10/13 09:14:32;;;;;;;;;;;14.10;57.80;;;;;;4921113;28;89089;-45
2023/10/13 09:17:08;;;;;;;;;;;14.10;57.60;;;;;;4945590;28;89405;-46
2023/10/13 09:19:47;;;;;;;;;;;14.10;57.90;;;;;;4954161;28;88565;-47
2023/10/13 09:22:42;;;;;;;;;;;14.20;57.80;;;;;;4956279;28;88072;-47
2023/10/13 09:25:13;;;;;;;;;;;14.20;57.80;;;;;;4953999;28;87304;-44
2023/10/13 09:27:39;;;;;;;;;;;14.20;57.70;;;;;;4955257;28;88320;-45
2023/10/13 09:30:38;;;;;;;;;;;14.20;57.80;;;;;;4954086;28;88236;-46
2023/10/13 09:33:08;;;;;;;;;;;14.20;58.00;;;;;;4949832;28;87147;-43
2023/10/13 09:35:36;;;;;;;;;;;14.20;58.00;;;;;;4951106;28;87747;-42
2023/10/13 09:38:03;;;;;;;;;;;14.20;58.00;;;;;;4957054;28;89333;-45
2023/10/13 09:40:34;;;;;;;;;;;14.20;58.10;;;;;;4957200;28;87872;-46
2023/10/13 09:43:05;;;;;;;;;;;14.20;58.10;;;;;;4955105;28;89733;-45
2023/10/13 09:45:43;;;;;;;;;;;14.20;58.50;;;;;;4956880;28;86421;-44
2023/10/13 09:48:21;;;;;;;;;;;14.20;58.40;;;;;;4954411;28;88279;-45
2023/10/13 09:50:48;;;;;;;;;;;14.30;58.60;;;;;;4951952;28;88158;-47
2023/10/13 09:53:18;;;;;;;;;;;14.30;58.50;;;;;;4949331;28;88141;-45
2023/10/13 09:56:12;;;;;;;;;;;14.30;58.60;;;;;;4957706;28;88670;-43
2023/10/13 09:58:47;;;;;;;;;;;14.30;58.80;;;;;;4953423;28;88030;-46
2023/10/13 10:01:20;;;;;;;;;;;14.40;58.70;;;;;;4949799;28;87066;-45
2023/10/13 10:06:39;;;;;;;;;;;14.40;58.70;;;;;;4951858;28;87437;-43
2023/10/13 10:09:15;;;;;;;;;;;14.40;58.70;;;;;;4954002;28;88840;-42
2023/10/13 10:11:49;;;;;;;;;;;14.40;58.90;;;;;;4950025;28;88909;-45
2023/10/13 10:14:17;;;;;;;;;;;14.40;58.60;;;;;;4954317;28;87322;-47
2023/10/13 10:16:51;;;;;;;;;;;14.40;58.70;;;;;;4955389;28;88515;-42
2023/10/13 10:19:18;;;;;;;;;;;14.40;59.10;;;;;;4956003;28;89602;-46
2023/10/13 10:21:43;;;;;;;;;;;14.50;58.40;;;;;;4950177;28;87205;-46
2023/10/13 10:24:30;;;;;;;;;;;14.50;58.70;;;;;;4957368;28;88811;-42
2023/10/13 10:26:55;;;;;;;;;;;14.50;58.80;;;;;;4955127;28;87271;-49
2023/10/13 10:29:21;;;;;;;;;;;14.60;58.90;;;;;;4952737;28;88966;-45
2023/10/13 10:31:47;;;;;;;;;;;14.60;58.70;;;;;;4954257;28;88171;-47
2023/10/13 10:34:13;;;;;;;;;;;14.60;58.90;;;;;;4954962;28;87128;-44
2023/10/13 10:36:42;;;;;;;;;;;14.60;58.60;;;;;;4955907;28;87309;-45
2023/10/13 10:39:09;;;;;;;;;;;14.60;58.70;;;;;;4950674;28;89332;-44
2023/10/13 10:41:54;;;;;;;;;;;14.70;58.40;;;;;;4954718;28;87254;-48
2023/10/13 10:44:33;;;;;;;;;;;14.70;59.10;;;;;;4959049;28;90802;-43
2023/10/13 10:47:19;;;;;;;;;;;14.70;58.30;;;;;;4956295;28;89616;-44
2023/10/13 10:49:45;;;;;;;;;;;14.70;58.40;;;;;;4952379;28;87594;-44
2023/10/13 10:52:18;;;;;;;;;;;14.70;58.40;;;;;;4957438;28;87980;-47
2023/10/13 10:54:44;;;;;;;;;;;14.80;58.40;;;;;;4954143;28;87822;-45
2023/10/13 10:57:17;;;;;;;;;;;14.80;58.40;;;;;;4952910;28;87402;-43
2023/10/13 10:59:43;;;;;;;;;;;14.80;58.40;;;;;;4951864;28;89486;-41
2023/10/13 11:02:15;;;;;;;;;;;14.80;58.50;;;;;;4953163;28;86412;-47
2023/10/13 11:04:49;;;;;;;;;;;14.80;58.60;;;;;;4951614;28;88214;-46
2023/10/13 11:07:20;;;;;;;;;;;14.80;58.40;;;;;;4954899;28;88349;-46
2023/10/13 11:09:45;;;;;;;;;;;14.80;58.60;;;;;;4956976;28;88455;-50
2023/10/13 11:12:26;;;;;;;;;;;14.90;58.60;;;;;;4953278;28;88054;-46
2023/10/13 11:15:02;;;;;;;;;;;14.90;58.50;;;;;;4952243;28;87079;-46
2023/10/13 11:17:41;;;;;;;;;;;14.90;58.50;;;;;;4954303;28;87588;-45
2023/10/13 11:20:17;;;;;;;;;;;14.90;58.50;;;;;;4952418;28;88871;-50
2023/10/13 11:22:47;;;;;;;;;;;15.00;58.60;;;;;;4954651;28;87636;-46
2023/10/13 11:25:22;;;;;;;;;;;15.00;58.80;;;;;;4951175;28;87118;-46
2023/10/13 11:30:15;;;;;;;;;;;15.00;58.70;;;;;;4953490;28;87199;-48
2023/10/13 11:32:41;;;;;;;;;;;15.00;58.90;;;;;;4956533;28;87361;-46
2023/10/13 11:35:20;;;;;;;;;;;15.00;58.90;;;;;;4952185;28;88726;-45
2023/10/13 11:37:55;;;;;;;;;;;15.10;58.70;;;;;;4951296;28;88936;-42
2023/10/13 11:40:43;;;;;;;;;;;15.10;58.90;;;;;;4954453;28;88396;-50
2023/10/13 11:43:13;;;;;;;;;;;15.10;58.70;;;;;;4954394;28;87246;-45
2023/10/13 11:45:52;;;;;;;;;;;15.10;58.70;;;;;;4951652;28;89009;-45
2023/10/13 11:48:23;;;;;;;;;;;15.20;58.90;;;;;;4947936;28;89892;-44
2023/10/13 11:50:49;;;;;;;;;;;15.20;58.80;;;;;;4952678;28;87181;-43
2023/10/13 11:53:14;;;;;;;;;;;15.30;58.70;;;;;;4953362;28;87571;-44
2023/10/13 11:55:40;;;;;;;;;;;15.20;58.60;;;;;;4953067;28;87349;-47
2023/10/13 11:58:05;;;;;;;;;;;15.30;58.60;;;;;;4946718;28;88852;-50
2023/10/13 12:08:49;;;;;;;;;;;15.40;58.50;;;;;;4949735;28;87307;-42
2023/10/13 12:11:30;;;;;;;;;;;15.40;58.60;;;;;;4954245;28;86989;-47
2023/10/13 12:13:56;;;;;;;;;;;15.40;58.60;;;;;;4950602;28;87586;-41
2023/10/13 12:16:22;;;;;;;;;;;15.40;58.50;;;;;;4953787;28;87933;-46
2023/10/13 12:18:53;;;;;;;;;;;15.40;58.30;;;;;;4958039;28;87119;-44
2023/10/13 12:21:21;;;;;;;;;;;15.50;58.20;;;;;;4950583;28;89594;-44
2023/10/13 12:23:47;;;;;;;;;;;15.50;58.20;;;;;;4954351;28;87170;-46
2023/10/13 12:26:32;;;;;;;;;;;15.50;58.20;;;;;;4950043;28;89343;-46
2023/10/13 12:29:06;;;;;;;;;;;15.50;58.20;;;;;;4956109;28;88207;-46
2023/10/13 12:31:33;;;;;;;;;;;15.50;58.30;;;;;;4952569;28;87312;-47
2023/10/13 12:34:06;;;;;;;;;;;15.50;58.20;;;;;;4948201;28;87202;-43
2023/10/13 12:36:41;;;;;;;;;;;15.60;58.10;;;;;;4954089;28;90030;-44
2023/10/13 12:52:16;;;;;;;;;;;15.70;58.00;;;;;;4951069;28;89818;-44
2023/10/13 12:54:58;;;;;;;;;;;15.70;57.90;;;;;;4950200;28;88660;-46
2023/10/13 12:57:27;;;;;;;;;;;15.80;57.90;;;;;;4952020;28;88090;-46
2023/10/13 12:59:53;;;;;;;;;;;15.70;57.70;;;;;;4953130;28;87115;-44
2023/10/13 13:02:24;;;;;;;;;;;15.80;57.80;;;;;;4954463;28;89641;-46
2023/10/13 13:05:28;;;;;;;;;;;15.80;57.90;;;;;;4956429;28;87278;-44
2023/10/13 13:07:52;;;;;;;;;;;15.80;57.70;;;;;;4952623;28;87651;-44
2023/10/13 13:10:18;;;;;;;;;;;15.80;57.70;;;;;;4955588;28;87272;-44
2023/10/13 13:12:43;;;;;;;;;;;15.80;57.80;;;;;;4954523;28;87338;-46
2023/10/13 13:15:11;;;;;;;;;;;15.90;57.80;;;;;;4955305;28;87496;-46
2023/10/13 13:17:38;;;;;;;;;;;15.80;57.80;;;;;;4956011;28;89937;-49
2023/10/13 13:20:27;;;;;;;;;;;15.90;57.70;;;;;;4955855;28;88976;-46
2023/10/13 13:22:53;;;;;;;;;;;15.90;57.70;;;;;;4955120;28;88952;-45
2023/10/13 13:25:25;;;;;;;;;;;15.90;57.50;;;;;;4962588;28;87212;-47
2023/10/13 13:27:50;;;;;;;;;;;16.00;57.60;;;;;;4955693;28;88813;-45
2023/10/13 13:30:19;;;;;;;;;;;16.00;57.40;;;;;;4954508;28;88163;-45
2023/10/13 13:32:46;;;;;;;;;;;16.00;57.40;;;;;;4954931;28;88214;-46
2023/10/13 13:35:13;;;;;;;;;;;16.00;57.50;;;;;;4954380;28;88721;-42
2023/10/13 13:37:39;;;;;;;;;;;16.00;57.30;;;;;;4955656;28;88278;-45
2023/10/13 13:40:14;;;;;;;;;;;16.10;57.30;;;;;;4952563;28;87251;-46
2023/10/13 13:42:40;;;;;;;;;;;16.10;57.10;;;;;;4951679;28;88475;-43
2023/10/13 13:45:11;;;;;;;;;;;16.10;57.00;;;;;;4955322;28;89263;-47
2023/10/13 13:47:37;;;;;;;;;;;16.10;57.10;;;;;;4956634;28;87314;-44
2023/10/13 13:50:07;;;;;;;;;;;16.20;56.90;;;;;;4951273;28;87191;-47
2023/10/13 13:52:45;;;;;;;;;;;16.20;56.90;;;;;;4955566;28;87274;-47
2023/10/13 13:55:17;;;;;;;;;;;16.20;56.60;;;;;;4955506;28;87392;-43
2023/10/13 13:57:43;;;;;;;;;;;16.20;56.70;;;;;;4951118;28;89294;-44
2023/10/13 14:00:16;;;;;;;;;;;16.20;56.90;;;;;;4952973;28;88193;-43
2023/10/13 14:02:47;;;;;;;;;;;16.30;57.10;;;;;;4953937;28;88231;-45
2023/10/13 14:05:15;;;;;;;;;;;16.20;56.90;;;;;;4954953;28;87231;-42
2023/10/13 14:07:42;;;;;;;;;;;16.30;56.70;;;;;;4948458;28;89042;-47
2023/10/13 14:10:15;;;;;;;;;;;16.30;56.50;;;;;;4957956;28;89735;-48
2023/10/13 14:12:41;;;;;;;;;;;16.30;56.50;;;;;;4954500;28;87483;-44
2023/10/13 14:15:19;;;;;;;;;;;16.30;56.70;;;;;;4953486;28;87208;-45
2023/10/13 14:17:49;;;;;;;;;;;16.30;56.40;;;;;;4948690;28;88524;-46
2023/10/13 14:20:18;;;;;;;;;;;16.40;56.80;;;;;;4954202;28;87109;-44
2023/10/13 14:22:47;;;;;;;;;;;16.40;56.50;;;;;;4955576;28;88080;-42
2023/10/13 14:25:14;;;;;;;;;;;16.40;56.50;;;;;;4953737;28;88666;-51
2023/10/13 14:27:42;;;;;;;;;;;16.40;56.30;;;;;;4948034;28;87107;-42
2023/10/13 14:30:08;;;;;;;;;;;16.40;56.10;;;;;;4959268;28;87406;-45
2023/10/13 14:32:40;;;;;;;;;;;16.50;56.30;;;;;;4952550;28;88141;-43
2023/10/13 14:35:14;;;;;;;;;;;16.40;56.20;;;;;;4956006;28;90156;-45
2023/10/13 14:37:40;;;;;;;;;;;16.50;56.40;;;;;;4949018;28;88847;-44
2023/10/13 14:40:11;;;;;;;;;;;16.50;56.20;;;;;;4956846;28;87481;-47
2023/10/13 14:42:40;;;;;;;;;;;16.50;56.60;;;;;;4954652;28;87258;-42
2023/10/13 14:45:16;;;;;;;;;;;16.50;56.50;;;;;;4951489;28;89596;-44
2023/10/13 14:47:44;;;;;;;;;;;16.50;56.40;;;;;;4954009;28;87108;-46
2023/10/13 14:50:17;;;;;;;;;;;16.50;56.60;;;;;;4952439;28;88919;-46
2023/10/13 14:52:43;;;;;;;;;;;16.50;56.30;;;;;;4957294;28;89227;-44
2023/10/13 14:55:18;;;;;;;;;;;16.60;56.20;;;;;;4950720;28;87390;-44
2023/10/13 14:57:47;;;;;;;;;;;16.60;56.50;;;;;;4954725;28;90394;-43
2023/10/13 15:00:13;;;;;;;;;;;16.60;56.30;;;;;;4952336;28;87145;-45
2023/10/13 15:02:39;;;;;;;;;;;16.60;56.30;;;;;;4953683;28;88204;-47
2023/10/13 15:05:04;;;;;;;;;;;16.60;56.00;;;;;;4956138;28;88142;-48
2023/10/13 15:07:30;;;;;;;;;;;16.60;56.10;;;;;;4956176;28;87498;-45
2023/10/13 15:09:57;;;;;;;;;;;16.60;56.10;;;;;;4952811;28;87597;-46
2023/10/13 15:12:25;;;;;;;;;;;16.60;55.90;;;;;;4951418;28;89355;-45
2023/10/13 15:14:53;;;;;;;;;;;16.70;56.30;;;;;;4956973;28;86404;-45
2023/10/13 15:17:18;;;;;;;;;;;16.70;56.10;;;;;;4953384;28;89596;-44
2023/10/13 15:19:44;;;;;;;;;;;16.70;56.50;;;;;;4953686;28;87130;-43
2023/10/13 15:22:16;;;;;;;;;;;16.70;56.00;;;;;;4950363;28;88297;-44
2023/10/13 15:24:46;;;;;;;;;;;16.70;56.20;;;;;;4954391;28;88089;-45
2023/10/13 15:27:11;;;;;;;;;;;16.70;56.40;;;;;;4953989;28;87248;-45
2023/10/13 15:29:37;;;;;;;;;;;16.70;56.40;;;;;;4953303;28;87379;-46
2023/10/13 15:34:29;;;;;;;;;;;16.70;56.40;;;;;;4953641;28;87111;-46
2023/10/13 15:36:56;;;;;;;;;;;16.70;56.50;;;;;;4954205;28;87015;-47
2023/10/13 15:39:28;;;;;;;;;;;16.70;56.50;;;;;;4955183;28;88137;-44
2023/10/13 15:41:54;;;;;;;;;;;16.70;56.50;;;;;;4948824;28;88016;-47
2023/10/13 15:44:24;;;;;;;;;;;16.80;56.50;;;;;;4953673;28;88313;-42
2023/10/13 15:46:53;;;;;;;;;;;16.80;56.50;;;;;;4953594;28;87943;-45
2023/10/13 15:49:19;;;;;;;;;;;16.80;56.50;;;;;;4950338;28;88363;-45
2023/10/13 15:51:44;;;;;;;;;;;16.80;56.50;;;;;;4950076;28;87211;-48
2023/10/13 15:54:16;;;;;;;;;;;16.80;56.50;;;;;;4957761;28;87222;-47
2023/10/13 15:56:43;;;;;;;;;;;16.80;56.50;;;;;;4954038;28;87391;-48
2023/10/13 15:59:09;;;;;;;;;;;16.80;56.50;;;;;;4952690;28;89679;-47
2023/10/13 16:04:18;;;;;;;;;;;16.80;56.50;;;;;;4951293;28;86364;-50
2023/10/13 16:06:46;;;;;;;;;;;16.90;56.50;;;;;;4954378;28;87225;-44
2023/10/13 16:09:15;;;;;;;;;;;16.80;56.50;;;;;;4951700;28;87465;-47
2023/10/13 16:11:42;;;;;;;;;;;16.80;56.50;;;;;;4951638;28;90351;-43
2023/10/13 16:14:10;;;;;;;;;;;16.90;56.50;;;;;;4953850;28;87313;-48
2023/10/13 16:16:36;;;;;;;;;;;16.90;56.50;;;;;;4951332;28;87329;-46
2023/10/13 16:19:05;;;;;;;;;;;16.90;56.40;;;;;;4953886;28;88098;-44
2023/10/13 16:21:30;;;;;;;;;;;16.90;56.40;;;;;;4954460;28;87126;-44
2023/10/13 16:23:56;;;;;;;;;;;16.90;56.40;;;;;;4952150;28;89800;-44
2023/10/13 16:26:21;;;;;;;;;;;16.90;56.50;;;;;;4952329;28;86913;-43
2023/10/13 16:28:57;;;;;;;;;;;16.90;56.50;;;;;;4952453;28;86621;-47
2023/10/13 16:31:23;;;;;;;;;;;16.90;56.50;;;;;;4949934;28;89391;-45
2023/10/13 16:33:49;;;;;;;;;;;16.90;56.40;;;;;;4953318;28;87055;-45
2023/10/13 16:36:15;;;;;;;;;;;16.90;56.50;;;;;;4960162;28;90777;-46
2023/10/13 16:38:45;;;;;;;;;;;16.90;56.40;;;;;;4955127;28;87264;-45
2023/10/13 16:41:12;;;;;;;;;;;16.90;56.50;;;;;;4959763;28;87211;-43
2023/10/13 16:43:38;;;;;;;;;;;16.90;56.50;;;;;;4955949;28;90130;-44
2023/10/13 16:46:07;;;;;;;;;;;17.00;56.60;;;;;;4954558;28;87499;-45
2023/10/13 16:48:33;;;;;;;;;;;17.00;56.60;;;;;;4955676;28;87310;-43
2023/10/13 16:50:59;;;;;;;;;;;17.00;56.70;;;;;;4955968;28;88178;-44
2023/10/13 16:53:25;;;;;;;;;;;17.00;56.60;;;;;;4954785;28;86392;-43
2023/10/13 16:55:51;;;;;;;;;;;17.00;56.70;;;;;;4957509;28;87025;-42
2023/10/13 16:58:17;;;;;;;;;;;17.00;56.70;;;;;;4953475;28;87996;-48
2023/10/13 17:00:42;;;;;;;;;;;17.00;56.60;;;;;;4955408;28;88108;-46
2023/10/13 17:03:08;;;;;;;;;;;17.00;56.70;;;;;;4956953;28;88279;-42
2023/10/13 17:05:43;;;;;;;;;;;17.00;56.70;;;;;;4955375;28;87391;-49
2023/10/13 17:08:09;;;;;;;;;;;17.00;56.70;;;;;;4956992;28;87462;-45
2023/10/13 17:10:36;;;;;;;;;;;17.00;56.70;;;;;;4953376;28;89551;-44
2023/10/13 17:13:04;;;;;;;;;;;17.00;56.70;;;;;;4955953;28;87345;-47